sensor_id;sensor_type;location;lat;lon;timestamp;pressure;altitude;pressure_sealevel;temperature;humidity
79415;BME280;68864;44.972;19.612;2023-04-25T00:00:42;99688.56;;;16.06;67.00
79415;BME280;68864;44.972;19.612;2023-04-25T00:03:09;99689.34;;;16.07;66.98
79415;BME280;68864;44.972;19.612;2023-04-25T00:05:35;99690.19;;;16.04;67.23
79415;BME280;68864;44.972;19.612;2023-04-25T00:08:03;99690.19;;;16.04;67.04
79415;BME280;68864;44.972;19.612;2023-04-25T00:10:31;99691.00;;;16.04;67.24
79415;BME280;68864;44.972;19.612;2023-04-25T00:12:58;99693.41;;;16.02;67.31
79415;BME280;68864;44.972;19.612;2023-04-25T00:15:27;99691.84;;;16.01;67.34
79415;BME280;68864;44.972;19.612;2023-04-25T00:17:56;99681.84;;;15.97;67.61
79415;BME280;68864;44.972;19.612;2023-04-25T00:20:22;99683.06;;;15.96;67.70
79415;BME280;68864;44.972;19.612;2023-04-25T00:22:50;99685.09;;;15.95;67.82
79415;BME280;68864;44.972;19.612;2023-04-25T00:25:18;99672.03;;;15.81;67.78
79415;BME280;68864;44.972;19.612;2023-04-25T00:27:46;99685.53;;;15.94;68.00
79415;BME280;68864;44.972;19.612;2023-04-25T00:30:13;99683.94;;;15.89;67.97
79415;BME280;68864;44.972;19.612;2023-04-25T00:32:40;99686.41;;;15.87;67.91
79415;BME280;68864;44.972;19.612;2023-04-25T00:35:08;99680.78;;;15.87;68.29
79415;BME280;68864;44.972;19.612;2023-04-25T00:37:35;99679.19;;;15.86;68.00
79415;BME280;68864;44.972;19.612;2023-04-25T00:40:05;99690.81;;;15.88;68.37
79415;BME280;68864;44.972;19.612;2023-04-25T00:42:32;99686.44;;;15.83;68.23
79415;BME280;68864;44.972;19.612;2023-04-25T00:45:00;99680.56;;;15.71;69.51
79415;BME280;68864;44.972;19.612;2023-04-25T00:47:27;99682.91;;;15.76;68.34
79415;BME280;68864;44.972;19.612;2023-04-25T00:49:55;99683.31;;;15.78;68.39
79415;BME280;68864;44.972;19.612;2023-04-25T00:52:21;99681.38;;;15.71;68.34
79415;BME280;68864;44.972;19.612;2023-04-25T00:54:48;99684.56;;;15.73;68.64
79415;BME280;68864;44.972;19.612;2023-04-25T00:57:15;99676.63;;;15.68;68.60
79415;BME280;68864;44.972;19.612;2023-04-25T00:59:44;99693.41;;;15.72;68.67
79415;BME280;68864;44.972;19.612;2023-04-25T01:02:13;99682.59;;;15.70;68.86
79415;BME280;68864;44.972;19.612;2023-04-25T01:04:40;99682.66;;;15.67;68.87
79415;BME280;68864;44.972;19.612;2023-04-25T01:07:06;99681.47;;;15.64;68.45
79415;BME280;68864;44.972;19.612;2023-04-25T01:09:36;99678.28;;;15.62;68.73
79415;BME280;68864;44.972;19.612;2023-04-25T01:12:03;99672.28;;;15.60;68.61
79415;BME280;68864;44.972;19.612;2023-04-25T01:14:30;99672.38;;;15.53;68.75
79415;BME280;68864;44.972;19.612;2023-04-25T01:16:58;99679.19;;;15.56;68.93
79415;BME280;68864;44.972;19.612;2023-04-25T01:19:26;99674.75;;;15.51;68.63
79415;BME280;68864;44.972;19.612;2023-04-25T01:21:54;99673.16;;;15.50;68.82
79415;BME280;68864;44.972;19.612;2023-04-25T01:24:21;99676.41;;;15.48;68.74
79415;BME280;68864;44.972;19.612;2023-04-25T01:26:48;99675.97;;;15.50;68.92
79415;BME280;68864;44.972;19.612;2023-04-25T01:29:16;99677.63;;;15.47;69.01
79415;BME280;68864;44.972;19.612;2023-04-25T01:31:43;99668.00;;;15.45;68.67
79415;BME280;68864;44.972;19.612;2023-04-25T01:34:11;99668.00;;;15.45;68.80
79415;BME280;68864;44.972;19.612;2023-04-25T01:36:38;99674.03;;;15.43;69.28
79415;BME280;68864;44.972;19.612;2023-04-25T01:39:07;99659.25;;;15.39;69.36
79415;BME280;68864;44.972;19.612;2023-04-25T01:41:34;99670.44;;;15.43;69.45
79415;BME280;68864;44.972;19.612;2023-04-25T01:44:01;99671.69;;;15.42;69.61
79415;BME280;68864;44.972;19.612;2023-04-25T01:46:28;99654.94;;;15.31;69.07
79415;BME280;68864;44.972;19.612;2023-04-25T01:48:56;99670.91;;;15.38;69.50
79415;BME280;68864;44.972;19.612;2023-04-25T01:51:22;99663.69;;;15.37;69.56
79415;BME280;68864;44.972;19.612;2023-04-25T01:53:49;99662.94;;;15.33;69.77
79415;BME280;68864;44.972;19.612;2023-04-25T01:56:19;99670.97;;;15.34;69.62
79415;BME280;68864;44.972;19.612;2023-04-25T01:58:45;99655.72;;;15.32;69.72
79415;BME280;68864;44.972;19.612;2023-04-25T02:01:12;99659.34;;;15.32;69.68
79415;BME280;68864;44.972;19.612;2023-04-25T02:03:39;99670.16;;;15.34;69.88
79415;BME280;68864;44.972;19.612;2023-04-25T02:06:06;99660.94;;;15.33;69.71
79415;BME280;68864;44.972;19.612;2023-04-25T02:08:33;99658.94;;;15.34;69.73
79415;BME280;68864;44.972;19.612;2023-04-25T02:10:59;99653.47;;;15.20;70.84
79415;BME280;68864;44.972;19.612;2023-04-25T02:13:29;99656.59;;;15.29;69.80
79415;BME280;68864;44.972;19.612;2023-04-25T02:15:56;99649.78;;;15.26;69.96
79415;BME280;68864;44.972;19.612;2023-04-25T02:18:23;99652.19;;;15.28;69.97
79415;BME280;68864;44.972;19.612;2023-04-25T02:20:51;99655.81;;;15.25;70.10
79415;BME280;68864;44.972;19.612;2023-04-25T02:23:18;99651.00;;;15.25;70.07
79415;BME280;68864;44.972;19.612;2023-04-25T02:25:45;99652.59;;;15.26;69.91
79415;BME280;68864;44.972;19.612;2023-04-25T02:28:12;99647.38;;;15.25;70.24
79415;BME280;68864;44.972;19.612;2023-04-25T02:30:40;99649.44;;;15.21;70.28
79415;BME280;68864;44.972;19.612;2023-04-25T02:33:06;99635.44;;;15.17;70.21
79415;BME280;68864;44.972;19.612;2023-04-25T02:35:33;99640.22;;;15.20;70.34
79415;BME280;68864;44.972;19.612;2023-04-25T02:38:00;99642.22;;;15.20;70.65
79415;BME280;68864;44.972;19.612;2023-04-25T02:40:27;99641.44;;;15.19;70.65
79415;BME280;68864;44.972;19.612;2023-04-25T02:42:53;99640.22;;;15.20;70.72
79415;BME280;68864;44.972;19.612;2023-04-25T02:45:21;99643.06;;;15.17;70.60
79415;BME280;68864;44.972;19.612;2023-04-25T02:47:48;99640.75;;;15.08;71.86
79415;BME280;68864;44.972;19.612;2023-04-25T02:50:15;99642.69;;;15.15;70.58
79415;BME280;68864;44.972;19.612;2023-04-25T02:52:43;99638.28;;;15.14;70.72
79415;BME280;68864;44.972;19.612;2023-04-25T02:55:11;99645.91;;;15.13;70.86
79415;BME280;68864;44.972;19.612;2023-04-25T02:57:38;99631.09;;;15.13;71.02
79415;BME280;68864;44.972;19.612;2023-04-25T03:00:06;99648.38;;;15.07;70.91
79415;BME280;68864;44.972;19.612;2023-04-25T03:02:33;99653.22;;;15.03;70.91
79415;BME280;68864;44.972;19.612;2023-04-25T03:05:01;99653.25;;;15.00;71.27
79415;BME280;68864;44.972;19.612;2023-04-25T03:07:28;99652.94;;;14.91;71.26
79415;BME280;68864;44.972;19.612;2023-04-25T03:09:55;99666.16;;;14.90;71.22
79415;BME280;68864;44.972;19.612;2023-04-25T03:12:22;99662.56;;;14.90;71.25
79415;BME280;68864;44.972;19.612;2023-04-25T03:14:49;99667.38;;;14.89;71.08
79415;BME280;68864;44.972;19.612;2023-04-25T03:17:15;99666.59;;;14.89;70.77
79415;BME280;68864;44.972;19.612;2023-04-25T03:19:42;99682.25;;;14.86;70.60
79415;BME280;68864;44.972;19.612;2023-04-25T03:22:10;99687.47;;;14.84;70.58
79415;BME280;68864;44.972;19.612;2023-04-25T03:24:37;99687.94;;;14.79;70.44
79415;BME280;68864;44.972;19.612;2023-04-25T03:27:03;99689.13;;;14.78;70.34
79415;BME280;68864;44.972;19.612;2023-04-25T03:29:30;99691.53;;;14.76;70.11
79415;BME280;68864;44.972;19.612;2023-04-25T03:31:57;99689.59;;;14.69;69.85
79415;BME280;68864;44.972;19.612;2023-04-25T03:34:24;99695.19;;;14.69;69.78
79415;BME280;68864;44.972;19.612;2023-04-25T03:36:51;99698.84;;;14.66;69.85
79415;BME280;68864;44.972;19.612;2023-04-25T03:39:19;99693.66;;;14.65;69.62
79415;BME280;68864;44.972;19.612;2023-04-25T03:41:46;99697.69;;;14.60;69.43
79415;BME280;68864;44.972;19.612;2023-04-25T03:44:13;99700.16;;;14.55;69.40
79415;BME280;68864;44.972;19.612;2023-04-25T03:46:40;99697.75;;;14.53;69.66
79415;BME280;68864;44.972;19.612;2023-04-25T03:49:06;99705.34;;;14.53;69.60
79415;BME280;68864;44.972;19.612;2023-04-25T03:51:33;99711.78;;;14.50;69.21
79415;BME280;68864;44.972;19.612;2023-04-25T03:54:00;99713.41;;;14.47;69.62
79415;BME280;68864;44.972;19.612;2023-04-25T03:56:30;99711.41;;;14.44;69.53
79415;BME280;68864;44.972;19.612;2023-04-25T03:58:56;99717.44;;;14.43;69.52
79415;BME280;68864;44.972;19.612;2023-04-25T04:01:23;99713.88;;;14.39;69.61
79415;BME280;68864;44.972;19.612;2023-04-25T04:03:50;99710.25;;;14.35;69.55
79415;BME280;68864;44.972;19.612;2023-04-25T04:06:17;99722.28;;;14.35;69.46
79415;BME280;68864;44.972;19.612;2023-04-25T04:08:46;99727.44;;;14.37;69.18
79415;BME280;68864;44.972;19.612;2023-04-25T04:11:12;99731.50;;;14.36;69.40
79415;BME280;68864;44.972;19.612;2023-04-25T04:13:40;99741.09;;;14.35;69.50
79415;BME280;68864;44.972;19.612;2023-04-25T04:16:07;99748.72;;;14.30;69.52
79415;BME280;68864;44.972;19.612;2023-04-25T04:18:34;99753.53;;;14.30;69.42
79415;BME280;68864;44.972;19.612;2023-04-25T04:21:01;99746.75;;;14.27;69.03
79415;BME280;68864;44.972;19.612;2023-04-25T04:23:27;99749.94;;;14.26;69.26
79415;BME280;68864;44.972;19.612;2023-04-25T04:25:55;99756.75;;;14.25;68.84
79415;BME280;68864;44.972;19.612;2023-04-25T04:28:22;99764.38;;;14.24;69.17
79415;BME280;68864;44.972;19.612;2023-04-25T04:30:50;99775.19;;;14.26;68.89
79415;BME280;68864;44.972;19.612;2023-04-25T04:33:17;99768.78;;;14.25;69.00
79415;BME280;68864;44.972;19.612;2023-04-25T04:35:45;99781.59;;;14.26;68.78
79415;BME280;68864;44.972;19.612;2023-04-25T04:38:13;99785.63;;;14.18;68.74
79415;BME280;68864;44.972;19.612;2023-04-25T04:40:41;99790.81;;;14.16;68.49
79415;BME280;68864;44.972;19.612;2023-04-25T04:43:08;99797.69;;;14.08;68.34
79415;BME280;68864;44.972;19.612;2023-04-25T04:45:35;99801.72;;;14.00;69.08
79415;BME280;68864;44.972;19.612;2023-04-25T04:48:04;99803.28;;;14.08;68.58
79415;BME280;68864;44.972;19.612;2023-04-25T04:50:30;99809.69;;;14.09;68.56
79415;BME280;68864;44.972;19.612;2023-04-25T04:52:58;99812.47;;;14.12;68.09
79415;BME280;68864;44.972;19.612;2023-04-25T04:55:25;99813.66;;;14.11;68.64
79415;BME280;68864;44.972;19.612;2023-04-25T04:57:52;99814.47;;;14.12;68.62
79415;BME280;68864;44.972;19.612;2023-04-25T05:00:18;99816.09;;;14.09;68.42
79415;BME280;68864;44.972;19.612;2023-04-25T05:02:45;99820.13;;;14.01;69.37
79415;BME280;68864;44.972;19.612;2023-04-25T05:05:13;99827.31;;;14.09;68.87
79415;BME280;68864;44.972;19.612;2023-04-25T05:07:40;99826.88;;;14.11;68.85
79415;BME280;68864;44.972;19.612;2023-04-25T05:10:08;99838.09;;;14.14;68.64
79415;BME280;68864;44.972;19.612;2023-04-25T05:12:35;99844.91;;;14.13;68.50
79415;BME280;68864;44.972;19.612;2023-04-25T05:15:02;99847.31;;;14.15;68.65
79415;BME280;68864;44.972;19.612;2023-04-25T05:17:28;99848.94;;;14.09;68.59
79415;BME280;68864;44.972;19.612;2023-04-25T05:19:55;99860.94;;;14.09;68.24
79415;BME280;68864;44.972;19.612;2023-04-25T05:22:23;99861.72;;;14.10;68.70
79415;BME280;68864;44.972;19.612;2023-04-25T05:24:50;99868.91;;;14.11;68.29
79415;BME280;68864;44.972;19.612;2023-04-25T05:27:17;99871.34;;;14.09;68.14
79415;BME280;68864;44.972;19.612;2023-04-25T05:29:44;99876.53;;;14.10;68.19
79415;BME280;68864;44.972;19.612;2023-04-25T05:32:11;99872.16;;;14.09;68.34
79415;BME280;68864;44.972;19.612;2023-04-25T05:34:38;99868.13;;;14.10;68.20
79415;BME280;68864;44.972;19.612;2023-04-25T05:37:04;99867.31;;;14.10;68.57
79415;BME280;68864;44.972;19.612;2023-04-25T05:39:33;99890.56;;;14.07;68.90
79415;BME280;68864;44.972;19.612;2023-04-25T05:41:59;99888.94;;;14.06;68.69
79415;BME280;68864;44.972;19.612;2023-04-25T05:44:27;99887.34;;;14.05;68.94
79415;BME280;68864;44.972;19.612;2023-04-25T05:46:54;99880.16;;;14.00;68.91
79415;BME280;68864;44.972;19.612;2023-04-25T05:49:21;99887.38;;;14.01;69.07
79415;BME280;68864;44.972;19.612;2023-04-25T05:51:47;99885.78;;;14.00;68.77
79415;BME280;68864;44.972;19.612;2023-04-25T05:54:14;99891.38;;;14.00;68.82
79415;BME280;68864;44.972;19.612;2023-04-25T05:56:42;99883.38;;;14.02;69.43
79415;BME280;68864;44.972;19.612;2023-04-25T05:59:09;99900.19;;;14.02;69.55
79415;BME280;68864;44.972;19.612;2023-04-25T06:01:36;99896.16;;;14.03;69.07
79415;BME280;68864;44.972;19.612;2023-04-25T06:04:03;99897.38;;;14.02;68.94
79415;BME280;68864;44.972;19.612;2023-04-25T06:06:30;99895.38;;;13.99;68.91
79415;BME280;68864;44.972;19.612;2023-04-25T06:08:58;99903.38;;;14.01;68.60
79415;BME280;68864;44.972;19.612;2023-04-25T06:11:25;99909.78;;;14.01;68.56
79415;BME280;68864;44.972;19.612;2023-04-25T06:13:53;99906.19;;;14.01;68.78
79415;BME280;68864;44.972;19.612;2023-04-25T06:16:20;99910.97;;;13.97;68.71
79415;BME280;68864;44.972;19.612;2023-04-25T06:18:47;99913.78;;;13.93;68.85
79415;BME280;68864;44.972;19.612;2023-04-25T06:21:13;99917.00;;;13.95;68.34
79415;BME280;68864;44.972;19.612;2023-04-25T06:23:40;99917.00;;;13.95;68.84
79415;BME280;68864;44.972;19.612;2023-04-25T06:26:07;99919.38;;;14.00;68.80
79415;BME280;68864;44.972;19.612;2023-04-25T06:28:34;99925.78;;;14.01;68.63
79415;BME280;68864;44.972;19.612;2023-04-25T06:31:02;99928.19;;;14.02;68.37
79415;BME280;68864;44.972;19.612;2023-04-25T06:33:28;99929.38;;;14.05;68.13
79415;BME280;68864;44.972;19.612;2023-04-25T06:35:55;99924.59;;;13.98;68.21
79415;BME280;68864;44.972;19.612;2023-04-25T06:38:22;99928.19;;;14.09;68.15
79415;BME280;68864;44.972;19.612;2023-04-25T06:40:49;99928.97;;;14.10;67.96
79415;BME280;68864;44.972;19.612;2023-04-25T06:43:16;99934.97;;;14.12;67.78
79415;BME280;68864;44.972;19.612;2023-04-25T06:45:43;99930.16;;;14.12;67.60
79415;BME280;68864;44.972;19.612;2023-04-25T06:48:11;99932.19;;;14.15;67.57
79415;BME280;68864;44.972;19.612;2023-04-25T06:50:38;99920.16;;;14.15;67.39
79415;BME280;68864;44.972;19.612;2023-04-25T06:53:04;99920.97;;;14.22;67.72
79415;BME280;68864;44.972;19.612;2023-04-25T06:55:31;99922.53;;;14.27;67.55
79415;BME280;68864;44.972;19.612;2023-04-25T06:57:58;99927.72;;;14.36;67.06
79415;BME280;68864;44.972;19.612;2023-04-25T07:00:25;99935.72;;;14.44;66.83
79415;BME280;68864;44.972;19.612;2023-04-25T07:02:53;99933.69;;;14.52;66.96
79415;BME280;68864;44.972;19.612;2023-04-25T07:05:21;99930.47;;;14.60;66.81
79415;BME280;68864;44.972;19.612;2023-04-25T07:07:48;99932.03;;;14.76;66.62
79415;BME280;68864;44.972;19.612;2023-04-25T07:10:15;99915.09;;;14.93;65.73
79415;BME280;68864;44.972;19.612;2023-04-25T07:12:42;99909.31;;;15.22;65.71
79415;BME280;68864;44.972;19.612;2023-04-25T07:15:09;99921.56;;;15.45;64.85
79415;BME280;68864;44.972;19.612;2023-04-25T07:17:36;99917.06;;;15.62;64.55
79415;BME280;68864;44.972;19.612;2023-04-25T07:20:04;99920.13;;;15.78;63.65
79415;BME280;68864;44.972;19.612;2023-04-25T07:22:34;99919.19;;;15.92;63.14
79415;BME280;68864;44.972;19.612;2023-04-25T07:25:01;99910.66;;;16.03;62.62
79415;BME280;68864;44.972;19.612;2023-04-25T07:27:29;99901.34;;;16.09;62.11
79415;BME280;68864;44.972;19.612;2023-04-25T07:29:56;99913.84;;;16.08;61.85
79415;BME280;68864;44.972;19.612;2023-04-25T07:32:23;99903.75;;;16.11;61.59
79415;BME280;68864;44.972;19.612;2023-04-25T07:34:49;99906.50;;;16.18;61.26
79415;BME280;68864;44.972;19.612;2023-04-25T07:37:16;99915.66;;;16.25;61.60
79415;BME280;68864;44.972;19.612;2023-04-25T07:39:45;99905.88;;;16.37;60.95
79415;BME280;68864;44.972;19.612;2023-04-25T07:42:12;99913.41;;;16.47;60.47
79415;BME280;68864;44.972;19.612;2023-04-25T07:44:39;99913.63;;;16.63;60.44
79415;BME280;68864;44.972;19.612;2023-04-25T07:47:07;99907.19;;;16.66;59.86
79415;BME280;68864;44.972;19.612;2023-04-25T07:49:34;99915.94;;;16.72;60.03
79415;BME280;68864;44.972;19.612;2023-04-25T07:52:02;99910.69;;;16.74;58.99
79415;BME280;68864;44.972;19.612;2023-04-25T07:54:30;99911.59;;;16.67;58.04
79415;BME280;68864;44.972;19.612;2023-04-25T07:56:59;99910.47;;;16.61;58.28
79415;BME280;68864;44.972;19.612;2023-04-25T07:59:26;99920.38;;;16.69;58.12
79415;BME280;68864;44.972;19.612;2023-04-25T08:01:52;99918.09;;;16.91;58.08
79415;BME280;68864;44.972;19.612;2023-04-25T08:04:19;99921.91;;;17.08;57.37
79415;BME280;68864;44.972;19.612;2023-04-25T08:06:46;99919.66;;;17.23;56.70
79415;BME280;68864;44.972;19.612;2023-04-25T08:09:13;99913.63;;;17.24;56.71
79415;BME280;68864;44.972;19.612;2023-04-25T08:11:40;99911.81;;;17.64;55.17
79415;BME280;68864;44.972;19.612;2023-04-25T08:14:08;99918.41;;;17.81;54.08
79415;BME280;68864;44.972;19.612;2023-04-25T08:16:35;99923.03;;;17.91;54.98
79415;BME280;68864;44.972;19.612;2023-04-25T08:19:02;99923.50;;;18.09;53.68
79415;BME280;68864;44.972;19.612;2023-04-25T08:21:29;99934.25;;;18.18;53.37
79415;BME280;68864;44.972;19.612;2023-04-25T08:23:56;99929.03;;;18.59;52.43
79415;BME280;68864;44.972;19.612;2023-04-25T08:26:23;99929.78;;;18.20;53.19
79415;BME280;68864;44.972;19.612;2023-04-25T08:28:50;99930.78;;;18.73;51.21
79415;BME280;68864;44.972;19.612;2023-04-25T08:31:18;99940.38;;;18.56;51.12
79415;BME280;68864;44.972;19.612;2023-04-25T08:33:46;99935.78;;;19.57;49.62
79415;BME280;68864;44.972;19.612;2023-04-25T08:36:12;99937.53;;;19.51;49.47
79415;BME280;68864;44.972;19.612;2023-04-25T08:38:40;99944.13;;;19.44;49.71
79415;BME280;68864;44.972;19.612;2023-04-25T08:41:06;99943.34;;;20.41;47.22
79415;BME280;68864;44.972;19.612;2023-04-25T08:43:34;99920.78;;;19.93;48.01
79415;BME280;68864;44.972;19.612;2023-04-25T08:46:01;99942.19;;;21.09;44.68
79415;BME280;68864;44.972;19.612;2023-04-25T08:48:32;99929.34;;;21.59;43.04
79415;BME280;68864;44.972;19.612;2023-04-25T08:51:01;99931.84;;;21.44;42.94
79415;BME280;68864;44.972;19.612;2023-04-25T08:53:31;99932.50;;;21.35;42.94
79415;BME280;68864;44.972;19.612;2023-04-25T08:56:00;99931.25;;;21.36;42.75
79415;BME280;68864;44.972;19.612;2023-04-25T08:58:28;99932.53;;;20.52;44.98
79415;BME280;68864;44.972;19.612;2023-04-25T09:00:55;99933.28;;;20.08;46.18
79415;BME280;68864;44.972;19.612;2023-04-25T09:03:22;99932.78;;;19.64;46.80
79415;BME280;68864;44.972;19.612;2023-04-25T09:05:51;99941.16;;;20.33;45.71
79415;BME280;68864;44.972;19.612;2023-04-25T09:08:18;99940.34;;;20.16;47.30
79415;BME280;68864;44.972;19.612;2023-04-25T09:10:44;99937.69;;;20.41;47.09
79415;BME280;68864;44.972;19.612;2023-04-25T09:13:13;99947.06;;;20.22;47.19
79415;BME280;68864;44.972;19.612;2023-04-25T09:15:50;99945.19;;;19.87;45.62
79415;BME280;68864;44.972;19.612;2023-04-25T09:18:24;99951.16;;;19.56;45.93
79415;BME280;68864;44.972;19.612;2023-04-25T09:20:54;99936.34;;;19.32;47.24
79415;BME280;68864;44.972;19.612;2023-04-25T09:23:21;99946.47;;;19.14;47.52
79415;BME280;68864;44.972;19.612;2023-04-25T09:25:50;99943.66;;;19.30;47.12
79415;BME280;68864;44.972;19.612;2023-04-25T09:28:23;99932.25;;;19.53;46.44
79415;BME280;68864;44.972;19.612;2023-04-25T09:30:54;99931.22;;;19.79;46.75
79415;BME280;68864;44.972;19.612;2023-04-25T09:33:27;99941.28;;;19.64;45.71
79415;BME280;68864;44.972;19.612;2023-04-25T09:36:01;99933.16;;;19.66;45.34
79415;BME280;68864;44.972;19.612;2023-04-25T09:38:30;99947.00;;;19.77;46.96
79415;BME280;68864;44.972;19.612;2023-04-25T09:40:58;99938.72;;;19.86;45.06
79415;BME280;68864;44.972;19.612;2023-04-25T09:43:26;99940.03;;;19.81;44.40
79415;BME280;68864;44.972;19.612;2023-04-25T09:45:54;99933.84;;;19.70;45.17
79415;BME280;68864;44.972;19.612;2023-04-25T09:48:24;99944.28;;;19.73;44.56
79415;BME280;68864;44.972;19.612;2023-04-25T09:51:05;99948.94;;;19.64;43.96
79415;BME280;68864;44.972;19.612;2023-04-25T09:53:32;99938.19;;;19.59;44.39
79415;BME280;68864;44.972;19.612;2023-04-25T09:56:00;99939.88;;;19.72;44.30
79415;BME280;68864;44.972;19.612;2023-04-25T09:58:30;99935.44;;;19.71;43.96
79415;BME280;68864;44.972;19.612;2023-04-25T10:01:00;99937.72;;;19.76;43.71
79415;BME280;68864;44.972;19.612;2023-04-25T10:03:29;99938.59;;;19.57;43.96
79415;BME280;68864;44.972;19.612;2023-04-25T10:05:59;99944.28;;;19.37;44.08
79415;BME280;68864;44.972;19.612;2023-04-25T10:08:32;99938.53;;;19.25;44.86
79415;BME280;68864;44.972;19.612;2023-04-25T10:11:00;99937.56;;;19.31;45.53
79415;BME280;68864;44.972;19.612;2023-04-25T10:13:29;99932.34;;;19.30;44.92
79415;BME280;68864;44.972;19.612;2023-04-25T10:15:57;99925.91;;;19.29;44.55
79415;BME280;68864;44.972;19.612;2023-04-25T10:18:25;99933.84;;;19.18;44.17
79415;BME280;68864;44.972;19.612;2023-04-25T10:20:53;99923.34;;;19.19;43.96
79415;BME280;68864;44.972;19.612;2023-04-25T10:23:21;99924.72;;;19.11;44.50
79415;BME280;68864;44.972;19.612;2023-04-25T10:25:49;99926.63;;;18.97;44.09
79415;BME280;68864;44.972;19.612;2023-04-25T10:28:16;99924.66;;;19.14;44.98
79415;BME280;68864;44.972;19.612;2023-04-25T10:30:57;99906.38;;;19.19;42.59
79415;BME280;68864;44.972;19.612;2023-04-25T10:33:31;99906.00;;;19.17;43.25
79415;BME280;68864;44.972;19.612;2023-04-25T10:35:58;99915.22;;;19.21;44.56
79415;BME280;68864;44.972;19.612;2023-04-25T10:38:25;99916.28;;;19.27;43.54
79415;BME280;68864;44.972;19.612;2023-04-25T10:41:03;99910.53;;;19.14;43.37
79415;BME280;68864;44.972;19.612;2023-04-25T10:43:35;99908.16;;;19.29;43.72
79415;BME280;68864;44.972;19.612;2023-04-25T10:46:03;99909.59;;;19.37;43.97
79415;BME280;68864;44.972;19.612;2023-04-25T10:48:45;99911.53;;;19.40;42.35
79415;BME280;68864;44.972;19.612;2023-04-25T10:51:16;99907.03;;;19.42;42.60
79415;BME280;68864;44.972;19.612;2023-04-25T10:53:44;99881.31;;;19.37;42.52
79415;BME280;68864;44.972;19.612;2023-04-25T10:56:16;99885.22;;;19.43;42.10
79415;BME280;68864;44.972;19.612;2023-04-25T10:58:44;99874.00;;;19.39;42.72
79415;BME280;68864;44.972;19.612;2023-04-25T11:01:12;99883.28;;;19.40;43.68
79415;BME280;68864;44.972;19.612;2023-04-25T11:03:43;99883.19;;;19.43;43.50
79415;BME280;68864;44.972;19.612;2023-04-25T11:06:18;99879.91;;;19.45;42.80
79415;BME280;68864;44.972;19.612;2023-04-25T11:08:48;99878.44;;;19.40;42.91
79415;BME280;68864;44.972;19.612;2023-04-25T11:11:18;99886.97;;;19.37;41.88
79415;BME280;68864;44.972;19.612;2023-04-25T11:13:47;99893.69;;;19.27;41.81
79415;BME280;68864;44.972;19.612;2023-04-25T11:16:14;99893.13;;;19.16;42.63
79415;BME280;68864;44.972;19.612;2023-04-25T11:18:41;99888.53;;;19.05;42.77
79415;BME280;68864;44.972;19.612;2023-04-25T11:21:08;99893.75;;;19.07;43.71
79415;BME280;68864;44.972;19.612;2023-04-25T11:23:35;99888.88;;;19.08;43.46
79415;BME280;68864;44.972;19.612;2023-04-25T11:26:02;99887.28;;;19.07;43.32
79415;BME280;68864;44.972;19.612;2023-04-25T11:28:31;99887.63;;;19.09;43.68
79415;BME280;68864;44.972;19.612;2023-04-25T11:30:57;99890.75;;;19.14;43.14
79415;BME280;68864;44.972;19.612;2023-04-25T11:33:25;99881.81;;;19.16;42.83
79415;BME280;68864;44.972;19.612;2023-04-25T11:35:53;99886.25;;;19.17;41.39
79415;BME280;68864;44.972;19.612;2023-04-25T11:38:20;99889.16;;;19.13;41.59
79415;BME280;68864;44.972;19.612;2023-04-25T11:40:49;99878.97;;;18.99;42.55
79415;BME280;68864;44.972;19.612;2023-04-25T11:43:17;99876.84;;;19.03;41.45
79415;BME280;68864;44.972;19.612;2023-04-25T11:45:48;99872.09;;;19.00;40.74
79415;BME280;68864;44.972;19.612;2023-04-25T11:48:14;99877.66;;;19.04;41.43
79415;BME280;68864;44.972;19.612;2023-04-25T11:50:41;99874.47;;;19.02;41.13
79415;BME280;68864;44.972;19.612;2023-04-25T11:53:08;99870.06;;;19.01;41.23
79415;BME280;68864;44.972;19.612;2023-04-25T11:55:35;99870.50;;;18.99;41.09
79415;BME280;68864;44.972;19.612;2023-04-25T11:58:03;99864.84;;;18.99;41.17
79415;BME280;68864;44.972;19.612;2023-04-25T12:00:31;99866.16;;;18.95;40.75
79415;BME280;68864;44.972;19.612;2023-04-25T12:02:59;99857.63;;;18.98;41.71
79415;BME280;68864;44.972;19.612;2023-04-25T12:05:29;99850.31;;;19.01;40.14
79415;BME280;68864;44.972;19.612;2023-04-25T12:08:09;99859.53;;;19.01;40.28
79415;BME280;68864;44.972;19.612;2023-04-25T12:10:37;99845.09;;;18.99;40.77
79415;BME280;68864;44.972;19.612;2023-04-25T12:13:18;99852.66;;;19.02;41.60
79415;BME280;68864;44.972;19.612;2023-04-25T12:15:45;99850.31;;;19.01;41.12
79415;BME280;68864;44.972;19.612;2023-04-25T12:18:13;99837.22;;;18.91;41.45
79415;BME280;68864;44.972;19.612;2023-04-25T12:20:41;99841.38;;;19.02;41.59
79415;BME280;68864;44.972;19.612;2023-04-25T12:23:08;99847.81;;;19.03;41.70
79415;BME280;68864;44.972;19.612;2023-04-25T12:25:37;99845.25;;;19.09;41.81
79415;BME280;68864;44.972;19.612;2023-04-25T12:28:14;99824.88;;;19.01;40.06
79415;BME280;68864;44.972;19.612;2023-04-25T12:30:54;99845.41;;;19.01;39.48
79415;BME280;68864;44.972;19.612;2023-04-25T12:33:23;99831.66;;;19.03;39.65
79415;BME280;68864;44.972;19.612;2023-04-25T12:35:50;99832.56;;;19.00;40.38
79415;BME280;68864;44.972;19.612;2023-04-25T12:38:24;99830.59;;;18.97;38.17
79415;BME280;68864;44.972;19.612;2023-04-25T12:40:51;99830.16;;;18.99;38.90
79415;BME280;68864;44.972;19.612;2023-04-25T12:43:18;99834.91;;;18.86;39.31
79415;BME280;68864;44.972;19.612;2023-04-25T12:45:44;99823.78;;;18.95;39.27
79415;BME280;68864;44.972;19.612;2023-04-25T12:48:11;99822.56;;;18.96;38.54
79415;BME280;68864;44.972;19.612;2023-04-25T12:50:39;99818.13;;;18.95;38.71
79415;BME280;68864;44.972;19.612;2023-04-25T12:53:06;99820.19;;;18.94;39.17